createdAt,value
2022-10-13T00:01:17.733Z,71.31
2022-10-13T00:03:45.609Z,75.27
2022-10-13T00:06:14.432Z,78.08
2022-10-13T00:08:43.134Z,79.29
2022-10-13T00:11:14.645Z,80.40
2022-10-13T00:13:43.072Z,80.37
2022-10-13T00:16:13.682Z,80.53
2022-10-13T00:18:41.884Z,80.50
2022-10-13T00:21:10.676Z,80.60
2022-10-13T00:23:39.132Z,80.52
2022-10-13T00:26:09.237Z,80.21
2022-10-13T00:28:38.887Z,79.39
2022-10-13T00:31:15.426Z,74.37
2022-10-13T00:33:42.914Z,72.96
2022-10-13T00:36:10.876Z,70.62
2022-10-13T00:38:38.536Z,68.44
2022-10-13T00:41:06.604Z,68.99
2022-10-13T00:43:58.428Z,68.62
2022-10-13T00:46:28.560Z,68.62
2022-10-13T00:48:58.907Z,70.21
2022-10-13T00:51:29.795Z,71.22
2022-10-13T00:53:59.473Z,70.26
2022-10-13T00:56:28.146Z,69.50
2022-10-13T00:58:58.585Z,68.87
2022-10-13T01:01:27.112Z,70.03
2022-10-13T01:03:54.353Z,69.49
2022-10-13T01:06:23.812Z,71.00
2022-10-13T01:08:51.856Z,71.57
2022-10-13T01:11:51.757Z,74.78
2022-10-13T01:14:30.352Z,78.98
2022-10-13T01:17:04.050Z,79.26
2022-10-13T01:20:05.611Z,76.47
2022-10-13T01:22:45.723Z,73.61
2022-10-13T01:25:30.351Z,74.75
2022-10-13T01:28:23.489Z,76.97
2022-10-13T01:30:58.801Z,79.39
2022-10-13T01:33:36.012Z,80.55
2022-10-13T01:36:13.918Z,80.97
2022-10-13T01:38:50.156Z,80.59
2022-10-13T01:41:21.394Z,80.00
2022-10-13T01:43:54.153Z,78.70
2022-10-13T01:46:27.681Z,78.23
2022-10-13T01:48:58.919Z,78.02
2022-10-13T01:51:28.546Z,78.87
2022-10-13T01:53:55.919Z,79.03
2022-10-13T01:56:23.248Z,79.76
2022-10-13T01:58:53.338Z,80.04
2022-10-13T02:01:39.783Z,79.99
2022-10-13T02:04:20.957Z,79.41
2022-10-13T02:06:53.743Z,73.69
2022-10-13T02:09:28.204Z,74.05
2022-10-13T02:12:00.389Z,72.22
2022-10-13T02:14:30.700Z,73.06
2022-10-13T02:17:02.572Z,71.90
2022-10-13T02:19:33.431Z,70.53
2022-10-13T02:22:00.963Z,70.42
2022-10-13T02:24:28.414Z,70.58
2022-10-13T02:26:56.924Z,72.45
2022-10-13T02:29:25.172Z,72.73
2022-10-13T02:31:52.469Z,71.39
2022-10-13T02:34:21.794Z,69.46
2022-10-13T02:36:49.170Z,70.68
2022-10-13T02:39:17.064Z,71.46
2022-10-13T02:41:44.708Z,78.12
2022-10-13T02:44:12.009Z,79.27
2022-10-13T02:46:39.368Z,79.73
2022-10-13T02:49:07.347Z,79.80
2022-10-13T02:51:39.890Z,77.21
2022-10-13T02:54:08.945Z,76.80
2022-10-13T02:56:36.234Z,73.64
2022-10-13T02:59:03.711Z,72.96
2022-10-13T03:01:31.381Z,72.99
2022-10-13T03:03:58.830Z,73.07
2022-10-13T03:06:26.156Z,72.22
2022-10-13T03:08:55.489Z,70.43
2022-10-13T03:11:22.902Z,75.96
2022-10-13T03:13:50.216Z,77.13
2022-10-13T03:16:17.852Z,77.15
2022-10-13T03:18:45.427Z,77.82
2022-10-13T03:21:12.655Z,77.97
2022-10-13T03:23:40.629Z,79.28
2022-10-13T03:26:09.264Z,80.32
2022-10-13T03:28:36.792Z,80.68
2022-10-13T03:31:07.962Z,80.49
2022-10-13T03:33:35.405Z,80.09
2022-10-13T03:36:04.966Z,79.49
2022-10-13T03:38:34.260Z,79.05
2022-10-13T03:41:05.522Z,80.33
2022-10-13T03:43:34.511Z,80.14
2022-10-13T03:46:04.889Z,79.62
2022-10-13T03:48:32.898Z,77.49
2022-10-13T03:51:00.140Z,74.75
2022-10-13T03:53:27.998Z,76.52
2022-10-13T03:55:56.671Z,73.94
2022-10-13T03:58:25.112Z,73.33
2022-10-13T04:00:54.273Z,73.96
2022-10-13T04:03:21.761Z,71.51
2022-10-13T04:05:49.376Z,71.38
2022-10-13T04:08:17.594Z,71.74
2022-10-13T04:10:44.891Z,71.85
2022-10-13T04:13:12.223Z,71.46
2022-10-13T04:15:41.285Z,72.02
2022-10-13T04:18:11.998Z,78.06
2022-10-13T04:20:39.951Z,77.38
2022-10-13T04:23:08.016Z,72.93
2022-10-13T04:25:36.346Z,75.36
2022-10-13T04:28:04.287Z,74.60
2022-10-13T04:30:33.226Z,74.49
2022-10-13T04:33:00.888Z,72.03
2022-10-13T04:35:30.162Z,72.26
2022-10-13T04:37:57.964Z,71.01
2022-10-13T04:40:25.811Z,73.71
2022-10-13T04:42:53.215Z,77.49
2022-10-13T04:45:20.957Z,78.97
2022-10-13T04:47:48.268Z,80.24
2022-10-13T04:50:15.852Z,79.68
2022-10-13T04:52:45.036Z,79.78
2022-10-13T04:55:12.622Z,79.85
2022-10-13T04:57:40.451Z,79.06
2022-10-13T05:00:08.849Z,78.43
2022-10-13T05:02:36.628Z,76.03
2022-10-13T05:05:06.780Z,74.54
2022-10-13T05:07:34.156Z,75.68
2022-10-13T05:10:03.982Z,75.56
2022-10-13T05:12:31.926Z,73.23
2022-10-13T05:14:59.295Z,74.00
2022-10-13T05:17:34.158Z,73.57
2022-10-13T05:20:03.449Z,73.44
2022-10-13T05:22:31.229Z,75.85
2022-10-13T05:24:58.824Z,77.11
2022-10-13T05:27:28.099Z,77.82
2022-10-13T05:29:55.504Z,76.00
2022-10-13T05:32:23.330Z,72.68
2022-10-13T05:34:50.732Z,73.10
2022-10-13T05:37:18.259Z,72.77
2022-10-13T05:39:48.865Z,72.03
2022-10-13T05:42:16.789Z,72.70
2022-10-13T05:44:46.388Z,73.88
2022-10-13T05:47:13.618Z,75.88
2022-10-13T05:49:41.366Z,78.55
2022-10-13T05:54:42.165Z,78.03
2022-10-13T05:57:14.921Z,78.56
2022-10-13T05:59:49.671Z,78.67
2022-10-13T06:02:21.694Z,78.44
2022-10-13T06:04:55.174Z,79.43
2022-10-13T06:07:23.449Z,79.56
2022-10-13T06:09:51.526Z,79.04
2022-10-13T06:12:19.263Z,77.46
2022-10-13T06:14:49.039Z,77.98
2022-10-13T06:17:16.394Z,78.38
2022-10-13T06:19:44.061Z,78.81
2022-10-13T06:22:11.750Z,78.81
2022-10-13T06:24:39.250Z,78.19
2022-10-13T06:27:06.841Z,77.90
2022-10-13T06:29:34.769Z,78.28
2022-10-13T06:32:03.462Z,79.06
2022-10-13T06:34:30.860Z,79.17
2022-10-13T06:37:01.267Z,80.10
2022-10-13T06:39:28.699Z,80.72
2022-10-13T06:41:56.610Z,81.85
2022-10-13T06:44:24.122Z,82.12
2022-10-13T06:46:52.124Z,82.88
2022-10-13T06:49:21.063Z,83.08
2022-10-13T06:51:49.179Z,82.96
2022-10-13T06:54:16.935Z,82.36
2022-10-13T06:56:44.493Z,82.33
2022-10-13T06:59:12.127Z,81.47
2022-10-13T07:01:41.726Z,81.03
2022-10-13T07:04:09.285Z,82.00
2022-10-13T07:06:38.617Z,80.15
2022-10-13T07:09:06.318Z,80.24
2022-10-13T07:11:34.583Z,80.15
2022-10-13T07:16:29.781Z,80.91
2022-10-13T07:18:57.153Z,80.23
2022-10-13T07:21:24.637Z,79.15
2022-10-13T07:23:54.752Z,79.92
2022-10-13T07:26:22.325Z,79.25
2022-10-13T07:28:49.891Z,78.76
2022-10-13T07:31:20.427Z,80.19
2022-10-13T07:33:50.047Z,78.30
2022-10-13T07:36:18.017Z,78.16
2022-10-13T07:38:46.573Z,78.19
2022-10-13T07:41:15.555Z,77.43
2022-10-13T07:43:43.582Z,76.17
2022-10-13T07:46:12.985Z,75.50
2022-10-13T07:48:41.322Z,75.85
2022-10-13T07:51:11.320Z,74.83
2022-10-13T07:53:38.843Z,74.58
2022-10-13T07:56:09.131Z,74.05
2022-10-13T07:58:39.531Z,74.10
2022-10-13T08:01:07.703Z,74.31
2022-10-13T08:06:05.223Z,72.80
2022-10-13T08:08:33.214Z,70.87
2022-10-13T08:11:02.025Z,71.45
2022-10-13T08:13:29.514Z,70.77
2022-10-13T08:16:01.048Z,70.26
2022-10-13T08:18:29.390Z,69.24
2022-10-13T08:21:23.938Z,69.86
2022-10-13T08:23:48.357Z,69.08
2022-10-13T08:26:22.137Z,69.53
2022-10-13T08:29:09.436Z,69.97
2022-10-13T08:31:39.148Z,68.90
2022-10-13T08:34:06.637Z,69.61
2022-10-13T08:36:34.291Z,68.34
2022-10-13T08:39:06.892Z,67.34
2022-10-13T08:41:36.863Z,67.47
2022-10-13T08:44:56.629Z,65.32
2022-10-13T08:47:09.123Z,66.18
2022-10-13T08:49:37.139Z,66.28
2022-10-13T08:52:05.621Z,65.50
2022-10-13T08:54:33.739Z,65.66
2022-10-13T08:59:29.954Z,67.12
2022-10-13T09:02:01.029Z,65.87
2022-10-13T09:04:31.468Z,63.50
2022-10-13T09:07:03.768Z,63.90
2022-10-13T09:09:31.677Z,63.67
2022-10-13T09:11:59.888Z,64.08
2022-10-13T09:14:30.531Z,62.42
2022-10-13T09:17:16.505Z,63.22
2022-10-13T09:19:45.482Z,62.85
2022-10-13T09:22:22.636Z,62.41
2022-10-13T09:25:08.425Z,62.30
2022-10-13T09:27:44.139Z,62.79
2022-10-13T09:30:33.960Z,62.33
2022-10-13T09:37:11.551Z,62.95
2022-10-13T09:39:40.529Z,60.63
2022-10-13T09:42:22.106Z,60.44
2022-10-13T09:44:57.819Z,63.07
2022-10-13T09:47:27.318Z,61.60
2022-10-13T09:50:07.528Z,59.71
2022-10-13T09:52:35.388Z,59.97
2022-10-13T09:55:32.442Z,58.33
2022-10-13T09:58:05.775Z,57.00
2022-10-13T10:00:33.411Z,58.38
2022-10-13T10:03:05.900Z,58.25
2022-10-13T10:05:41.613Z,56.68
2022-10-13T10:08:16.135Z,57.40
2022-10-13T10:10:45.508Z,56.98
2022-10-13T10:13:14.786Z,56.88
2022-10-13T10:15:50.816Z,55.55
2022-10-13T10:18:24.419Z,55.90
2022-10-13T10:21:05.366Z,55.03
2022-10-13T10:23:42.609Z,54.63
2022-10-13T10:26:22.241Z,54.56
2022-10-13T10:29:06.467Z,53.58
2022-10-13T10:31:48.636Z,55.87
2022-10-13T10:34:35.405Z,53.78
2022-10-13T10:37:19.907Z,54.28
2022-10-13T10:40:00.014Z,53.12
2022-10-13T10:42:52.196Z,53.64
2022-10-13T10:45:24.979Z,53.58
2022-10-13T10:47:56.824Z,51.36
2022-10-13T10:50:26.103Z,52.53
2022-10-13T10:53:01.776Z,51.53
2022-10-13T10:55:35.545Z,50.02
2022-10-13T10:58:20.055Z,51.23
2022-10-13T11:00:54.199Z,51.89
2022-10-13T11:03:31.329Z,51.08
2022-10-13T11:06:00.961Z,50.98
2022-10-13T11:08:30.683Z,51.06
2022-10-13T11:11:37.705Z,47.23
2022-10-13T11:14:27.030Z,48.73
2022-10-13T11:17:17.546Z,49.73
2022-10-13T11:19:46.751Z,48.93
2022-10-13T11:22:19.303Z,47.32
2022-10-13T11:24:59.944Z,47.95
2022-10-13T11:27:39.525Z,49.02
2022-10-13T11:30:46.943Z,46.59
2022-10-13T11:33:54.507Z,47.81
2022-10-13T11:36:51.847Z,46.38
2022-10-13T11:40:00.773Z,45.80
2022-10-13T11:43:02.718Z,44.13
2022-10-13T11:46:10.411Z,45.48
2022-10-13T11:49:02.088Z,43.54
2022-10-13T11:51:34.673Z,45.20
2022-10-13T11:54:13.532Z,44.84
2022-10-13T11:56:48.671Z,41.25
2022-10-13T11:59:25.925Z,41.63
2022-10-13T12:01:57.212Z,42.67
2022-10-13T12:04:26.769Z,39.90
2022-10-13T12:06:57.896Z,43.41
2022-10-13T12:09:25.542Z,40.25
2022-10-13T12:11:59.370Z,41.94
2022-10-13T12:14:32.598Z,40.08
2022-10-13T12:17:01.633Z,41.38
2022-10-13T12:19:31.820Z,39.35
2022-10-13T12:22:02.004Z,38.75
2022-10-13T12:24:31.005Z,38.22
2022-10-13T12:26:59.464Z,38.21
2022-10-13T12:29:31.068Z,38.67
2022-10-13T12:32:03.941Z,38.22
2022-10-13T12:34:32.946Z,37.39
2022-10-13T12:37:02.708Z,36.76
2022-10-13T12:39:33.372Z,38.54
2022-10-13T12:42:03.288Z,37.75
2022-10-13T12:44:32.383Z,38.26
2022-10-13T12:47:01.376Z,39.14
2022-10-13T12:49:32.075Z,38.08
2022-10-13T12:52:06.130Z,40.22
2022-10-13T12:54:35.798Z,37.76
2022-10-13T12:57:14.195Z,37.04
2022-10-13T12:59:42.807Z,39.03
2022-10-13T13:02:20.714Z,37.09
2022-10-13T13:04:49.940Z,36.84
2022-10-13T13:07:31.836Z,39.77
2022-10-13T13:10:13.938Z,37.87
2022-10-13T13:12:42.902Z,37.43
2022-10-13T13:15:37.401Z,41.10
2022-10-13T13:18:38.489Z,42.94
2022-10-13T13:21:08.470Z,38.15
2022-10-13T13:23:36.355Z,36.63
2022-10-13T13:26:11.078Z,37.85
2022-10-13T13:28:42.814Z,39.06
2022-10-13T13:31:11.584Z,38.81
2022-10-13T13:33:39.554Z,39.80
2022-10-13T13:36:15.376Z,40.10
2022-10-13T13:38:43.300Z,40.84
2022-10-13T13:41:10.907Z,40.33
2022-10-13T13:43:38.244Z,40.40
2022-10-13T13:46:07.848Z,41.44
2022-10-13T13:48:35.327Z,41.45
2022-10-13T13:51:02.736Z,40.69
2022-10-13T13:53:32.045Z,40.51
2022-10-13T13:55:59.377Z,40.46
2022-10-13T13:58:27.155Z,40.41
2022-10-13T14:00:54.302Z,40.32
2022-10-13T14:03:21.536Z,40.46
2022-10-13T14:05:49.294Z,40.93
2022-10-13T14:08:16.794Z,41.00
2022-10-13T14:10:45.455Z,40.01
2022-10-13T14:13:13.359Z,41.71
2022-10-13T14:15:40.694Z,41.29
2022-10-13T14:18:08.516Z,42.74
2022-10-13T14:20:40.590Z,43.33
2022-10-13T14:23:07.623Z,42.47
2022-10-13T14:25:35.319Z,43.39
2022-10-13T14:28:04.500Z,44.18
2022-10-13T14:30:31.929Z,42.99
2022-10-13T14:32:59.281Z,42.91
2022-10-13T14:35:26.914Z,43.08
2022-10-13T14:37:54.358Z,43.02
2022-10-13T14:40:21.861Z,43.33
2022-10-13T14:42:49.740Z,43.98
2022-10-13T14:45:18.422Z,42.75
2022-10-13T14:47:45.651Z,43.90
2022-10-13T14:50:13.431Z,43.41
2022-10-13T14:52:40.924Z,43.66
2022-10-13T14:55:09.169Z,43.75
2022-10-13T14:57:36.800Z,44.21
2022-10-13T15:00:05.111Z,43.99
2022-10-13T15:02:34.044Z,43.30
2022-10-13T15:05:02.011Z,44.46
2022-10-13T15:07:29.417Z,45.34
2022-10-13T15:10:05.951Z,45.92
2022-10-13T15:12:34.103Z,45.38
2022-10-13T15:15:01.376Z,46.09
2022-10-13T15:17:33.326Z,46.08
2022-10-13T15:20:04.704Z,46.13
2022-10-13T15:22:32.423Z,46.28
2022-10-13T15:24:59.728Z,46.81
2022-10-13T15:27:27.311Z,47.02
2022-10-13T15:29:54.660Z,47.17
2022-10-13T15:32:22.297Z,46.83
2022-10-13T15:34:51.750Z,46.96
2022-10-13T15:37:19.057Z,47.10
2022-10-13T15:39:46.312Z,47.42
2022-10-13T15:42:14.077Z,47.99
2022-10-13T15:45:08.178Z,48.15
2022-10-13T15:47:29.035Z,48.98
2022-10-13T15:49:57.928Z,49.47
2022-10-13T15:52:27.760Z,49.89
2022-10-13T15:54:58.340Z,51.07
2022-10-13T15:57:26.137Z,52.24
2022-10-13T15:59:53.463Z,53.19
2022-10-13T16:02:21.341Z,52.34
2022-10-13T16:04:49.218Z,51.30
2022-10-13T16:07:18.079Z,51.49
2022-10-13T16:09:46.008Z,53.11
2022-10-13T16:12:13.534Z,54.04
2022-10-13T16:14:43.484Z,54.49
2022-10-13T16:17:10.970Z,56.01
2022-10-13T16:19:38.667Z,57.41
2022-10-13T16:22:06.096Z,56.70
2022-10-13T16:24:35.438Z,56.07
2022-10-13T16:27:03.400Z,57.99
2022-10-13T16:29:31.519Z,57.51
2022-10-13T16:31:59.110Z,58.11
2022-10-13T16:34:27.570Z,58.34
2022-10-13T16:36:55.172Z,57.81
2022-10-13T16:39:23.152Z,57.82
2022-10-13T16:41:51.932Z,57.18
2022-10-13T16:44:20.000Z,58.62
2022-10-13T16:46:47.625Z,60.19
2022-10-13T16:49:15.831Z,59.71
2022-10-13T16:51:43.293Z,58.60
2022-10-13T16:54:13.177Z,56.80
2022-10-13T16:56:40.835Z,57.48
2022-10-13T16:59:10.491Z,56.41
2022-10-13T17:01:37.858Z,58.78
2022-10-13T17:04:05.587Z,59.24
2022-10-13T17:06:33.588Z,59.97
2022-10-13T17:09:01.396Z,58.55
2022-10-13T17:11:31.052Z,61.14
2022-10-13T17:13:59.716Z,62.72
2022-10-13T17:16:29.564Z,62.87
2022-10-13T17:18:57.404Z,63.58
2022-10-13T17:21:25.094Z,64.36
2022-10-13T17:23:54.401Z,64.17
2022-10-13T17:26:22.387Z,65.38
2022-10-13T17:28:49.770Z,65.00
2022-10-13T17:31:18.995Z,65.37
2022-10-13T17:33:48.489Z,65.44
2022-10-13T17:36:18.478Z,65.45
2022-10-13T17:38:46.870Z,65.98
2022-10-13T17:41:14.954Z,63.89
2022-10-13T17:43:42.458Z,65.05
2022-10-13T17:46:34.952Z,65.34
2022-10-13T17:49:01.602Z,65.94
2022-10-13T17:51:29.496Z,67.53
2022-10-13T17:53:58.975Z,69.71
2022-10-13T17:56:27.224Z,69.39
2022-10-13T17:58:55.053Z,69.97
2022-10-13T18:01:24.404Z,71.70
2022-10-13T18:03:54.159Z,71.68
2022-10-13T18:06:23.620Z,70.53
2022-10-13T18:08:51.236Z,66.92
2022-10-13T18:11:21.120Z,66.42
2022-10-13T18:13:48.765Z,63.81
2022-10-13T18:16:18.348Z,62.15
2022-10-13T18:18:46.993Z,62.31
2022-10-13T18:21:17.150Z,63.25
2022-10-13T18:23:46.620Z,65.17
2022-10-13T18:26:16.683Z,68.17
2022-10-13T18:28:45.049Z,71.72
2022-10-13T18:31:14.412Z,71.88
2022-10-13T18:33:42.502Z,71.64
2022-10-13T18:36:15.630Z,72.17
2022-10-13T18:38:43.691Z,72.66
2022-10-13T18:41:13.497Z,73.45
2022-10-13T18:43:41.439Z,74.19
2022-10-13T18:46:09.658Z,74.83
2022-10-13T18:48:37.534Z,73.98
2022-10-13T18:51:07.358Z,73.86
2022-10-13T18:53:35.453Z,74.36
2022-10-13T18:56:05.013Z,74.58
2022-10-13T18:58:34.817Z,74.58
2022-10-13T19:01:03.806Z,74.27
2022-10-13T19:03:33.040Z,73.56
2022-10-13T19:06:02.399Z,74.50
2022-10-13T19:08:30.673Z,75.09
2022-10-13T19:10:58.883Z,77.09
2022-10-13T19:13:27.223Z,76.32
2022-10-13T19:16:01.118Z,77.33
2022-10-13T19:18:29.061Z,77.53
2022-10-13T19:20:56.787Z,77.74
2022-10-13T19:23:24.342Z,77.78
2022-10-13T19:25:52.046Z,76.96
2022-10-13T19:28:20.442Z,76.39
2022-10-13T19:30:48.425Z,76.49
2022-10-13T19:33:18.372Z,76.04
2022-10-13T19:35:47.837Z,76.33
2022-10-13T19:38:16.435Z,74.93
2022-10-13T19:40:44.813Z,73.51
2022-10-13T19:43:12.524Z,72.21
2022-10-13T19:45:44.601Z,73.24
2022-10-13T19:48:12.177Z,73.98
2022-10-13T19:50:41.432Z,74.61
2022-10-13T19:53:09.406Z,74.05
2022-10-13T19:55:41.270Z,73.67
2022-10-13T19:58:08.729Z,73.26
2022-10-13T20:00:37.139Z,73.13
2022-10-13T20:03:05.101Z,72.33
2022-10-13T20:05:32.448Z,72.30
2022-10-13T20:08:01.554Z,72.35
2022-10-13T20:10:29.380Z,72.10
2022-10-13T20:12:56.795Z,72.07
2022-10-13T20:15:24.461Z,71.65
2022-10-13T20:17:51.786Z,70.35
2022-10-13T20:20:22.391Z,70.93
2022-10-13T20:22:50.212Z,70.65
2022-10-13T20:25:19.279Z,70.54
2022-10-13T20:27:46.720Z,70.08
2022-10-13T20:30:14.423Z,70.47
2022-10-13T20:32:42.178Z,71.44
2022-10-13T20:35:09.814Z,72.10
2022-10-13T20:37:37.581Z,71.93
2022-10-13T20:40:05.604Z,71.75
2022-10-13T20:42:34.567Z,72.97
2022-10-13T20:45:02.159Z,72.51
2022-10-13T20:47:29.838Z,72.45
2022-10-13T20:49:57.751Z,72.24
2022-10-13T20:52:25.538Z,71.81
2022-10-13T20:54:52.829Z,72.17
2022-10-13T20:57:20.544Z,71.97
2022-10-13T20:59:50.889Z,73.03
2022-10-13T21:02:18.244Z,73.81
2022-10-13T21:04:45.584Z,74.75
2022-10-13T21:07:13.278Z,74.20
2022-10-13T21:09:40.723Z,76.44
2022-10-13T21:12:08.599Z,76.08
2022-10-13T21:14:35.910Z,75.67
2022-10-13T21:17:05.174Z,75.11
2022-10-13T21:19:33.511Z,74.90
2022-10-13T21:22:01.312Z,74.16
2022-10-13T21:24:29.207Z,73.51
2022-10-13T21:26:57.169Z,73.20
2022-10-13T21:29:24.738Z,73.19
2022-10-13T21:31:52.384Z,73.10
2022-10-13T21:34:21.200Z,73.10
2022-10-13T21:36:49.135Z,73.26
2022-10-13T21:39:16.673Z,73.55
2022-10-13T21:41:44.449Z,73.84
2022-10-13T21:44:13.508Z,74.21
2022-10-13T21:46:40.948Z,74.20
2022-10-13T21:49:09.559Z,73.90
2022-10-13T21:51:40.118Z,73.32
2022-10-13T21:54:10.000Z,72.62
2022-10-13T21:56:37.727Z,73.18
2022-10-13T21:59:05.380Z,73.68
2022-10-13T22:01:34.059Z,73.08
2022-10-13T22:04:02.348Z,73.23
2022-10-13T22:06:31.135Z,71.03
2022-10-13T22:09:02.332Z,69.36
2022-10-13T22:11:31.697Z,73.37
2022-10-13T22:13:59.677Z,75.57
2022-10-13T22:16:31.621Z,76.23
2022-10-13T22:18:59.052Z,75.79
2022-10-13T22:21:29.682Z,76.89
2022-10-13T22:23:59.124Z,75.28
2022-10-13T22:26:28.631Z,75.74
2022-10-13T22:28:57.676Z,77.18
2022-10-13T22:31:26.500Z,77.45
2022-10-13T22:33:54.649Z,77.57
2022-10-13T22:36:23.706Z,77.99
2022-10-13T22:38:54.078Z,78.48
2022-10-13T22:41:22.616Z,78.03
2022-10-13T22:43:52.701Z,76.67
2022-10-13T22:46:23.815Z,74.54
2022-10-13T22:48:51.183Z,74.50
2022-10-13T22:51:21.854Z,75.01
2022-10-13T22:53:50.377Z,74.90
2022-10-13T22:56:19.731Z,72.01
2022-10-13T22:58:49.723Z,69.34
2022-10-13T23:01:19.406Z,68.81
2022-10-13T23:03:47.959Z,72.37
2022-10-13T23:06:16.552Z,73.80
2022-10-13T23:08:44.467Z,76.96
2022-10-13T23:11:11.828Z,76.84
2022-10-13T23:13:39.551Z,75.88
2022-10-13T23:16:11.404Z,77.19
2022-10-13T23:18:40.774Z,77.74
2022-10-13T23:21:12.480Z,77.26
2022-10-13T23:23:39.833Z,78.59
2022-10-13T23:26:09.693Z,78.48
2022-10-13T23:28:37.711Z,79.03
2022-10-13T23:31:09.333Z,78.33
2022-10-13T23:33:37.069Z,75.85
2022-10-13T23:36:07.481Z,75.30
2022-10-13T23:38:35.455Z,75.79
2022-10-13T23:41:04.677Z,76.11
2022-10-13T23:43:32.485Z,75.72
2022-10-13T23:45:59.914Z,76.09
2022-10-13T23:48:27.525Z,77.65
2022-10-13T23:50:55.727Z,77.54
2022-10-13T23:53:24.727Z,78.20
2022-10-13T23:55:52.206Z,78.14
2022-10-13T23:58:19.936Z,77.03
